createdAt,value
2019-03-01T00:02:15.053Z,21.77
2019-03-01T00:05:39.841Z,20.93
2019-03-01T00:08:23.868Z,22.03
2019-03-01T00:11:11.960Z,20.47
2019-03-01T00:14:19.759Z,20.57
2019-03-01T00:17:33.094Z,20.70
2019-03-01T00:20:45.235Z,20.70
2019-03-01T00:24:06.115Z,21.17
2019-03-01T00:27:27.612Z,20.90
2019-03-01T00:30:35.399Z,23.57
2019-03-01T00:33:50.824Z,21.27
2019-03-01T00:37:12.797Z,21.50
2019-03-01T00:40:11.758Z,20.73
2019-03-01T00:43:30.106Z,21.67
2019-03-01T00:46:04.437Z,21.73
2019-03-01T00:48:35.303Z,22.90
2019-03-01T00:51:08.693Z,22.47
2019-03-01T00:53:58.905Z,22.70
2019-03-01T00:56:39.867Z,21.90
2019-03-01T00:59:11.186Z,24.47
2019-03-01T01:01:43.604Z,23.90
2019-03-01T01:04:17.358Z,22.13
2019-03-01T01:07:06.516Z,25.07
2019-03-01T01:09:55.932Z,24.97
2019-03-01T01:12:37.963Z,24.57
2019-03-01T01:15:12.361Z,28.20
2019-03-01T01:18:02.963Z,24.40
2019-03-01T01:20:35.641Z,27.37
2019-03-01T01:23:06.397Z,26.00
2019-03-01T01:25:54.927Z,28.40
2019-03-01T01:28:25.415Z,26.63
2019-03-01T01:30:57.791Z,25.77
2019-03-01T01:33:31.198Z,26.03
2019-03-01T01:36:03.552Z,26.60
2019-03-01T01:38:35.433Z,28.67
2019-03-01T01:41:08.758Z,25.83
2019-03-01T01:43:42.122Z,26.53
2019-03-01T01:46:16.343Z,27.67
2019-03-01T01:48:50.229Z,28.87
2019-03-01T01:51:24.329Z,26.97
2019-03-01T01:53:57.656Z,26.60
2019-03-01T01:56:29.851Z,28.60
2019-03-01T01:59:19.275Z,27.67
2019-03-01T02:01:56.514Z,26.53
2019-03-01T02:04:29.751Z,27.57
2019-03-01T02:07:19.139Z,28.13
2019-03-01T02:10:09.040Z,25.53
2019-03-01T02:12:40.657Z,25.70
2019-03-01T02:15:15.842Z,24.40
2019-03-01T02:18:05.234Z,24.20
2019-03-01T02:20:54.586Z,22.00
2019-03-01T02:23:34.419Z,23.97
2019-03-01T02:26:06.222Z,22.10
2019-03-01T02:28:40.751Z,23.50
2019-03-01T02:31:14.314Z,22.47
2019-03-01T02:33:45.011Z,23.10
2019-03-01T02:36:18.166Z,22.80
2019-03-01T02:38:50.860Z,21.53
2019-03-01T02:41:24.926Z,22.60
2019-03-01T02:43:57.707Z,23.07
2019-03-01T02:46:30.623Z,21.90
2019-03-01T02:49:03.852Z,22.20
2019-03-01T02:51:36.876Z,21.63
2019-03-01T02:54:09.556Z,20.50
2019-03-01T02:56:41.741Z,18.50
2019-03-01T02:59:16.837Z,17.97
2019-03-01T03:01:55.959Z,17.27
2019-03-01T03:04:31.421Z,16.93
2019-03-01T03:07:09.408Z,16.80
2019-03-01T03:09:43.076Z,16.00
2019-03-01T03:12:22.771Z,15.57
2019-03-01T03:14:56.218Z,15.83
2019-03-01T03:17:30.180Z,17.07
2019-03-01T03:20:19.521Z,16.43
2019-03-01T03:23:08.941Z,17.83
2019-03-01T03:25:58.247Z,16.33
2019-03-01T03:28:38.315Z,17.30
2019-03-01T03:31:13.112Z,17.20
2019-03-01T03:33:50.313Z,17.57
2019-03-01T03:36:22.236Z,16.53
2019-03-01T03:38:53.388Z,16.30
2019-03-01T03:41:23.971Z,16.70
2019-03-01T03:43:57.206Z,17.37
2019-03-01T03:46:29.856Z,16.17
2019-03-01T03:49:03.145Z,17.13
2019-03-01T03:51:34.546Z,16.03
2019-03-01T03:54:06.156Z,17.63
2019-03-01T03:56:39.897Z,17.07
2019-03-01T03:59:12.370Z,17.63
2019-03-01T04:01:45.875Z,16.67
2019-03-01T04:04:30.222Z,17.20
2019-03-01T04:07:02.038Z,18.07
2019-03-01T04:09:34.592Z,17.57
2019-03-01T04:12:06.543Z,18.30
2019-03-01T04:14:38.428Z,17.27
2019-03-01T04:17:12.158Z,18.20
2019-03-01T04:19:44.569Z,17.43
2019-03-01T04:22:18.005Z,18.57
2019-03-01T04:24:52.065Z,16.90
2019-03-01T04:27:26.515Z,18.90
2019-03-01T04:30:01.102Z,17.17
2019-03-01T04:32:34.803Z,17.53
2019-03-01T04:35:09.911Z,16.77
2019-03-01T04:37:47.769Z,17.53
2019-03-01T04:40:21.565Z,16.57
2019-03-01T04:42:55.258Z,15.60
2019-03-01T04:45:27.635Z,16.20
2019-03-01T04:48:00.778Z,16.03
2019-03-01T04:50:50.333Z,16.03
2019-03-01T04:53:43.077Z,15.97
2019-03-01T04:56:32.274Z,16.70
2019-03-01T04:59:04.554Z,17.10
2019-03-01T05:01:35.837Z,16.60
2019-03-01T05:04:14.441Z,16.23
2019-03-01T05:06:44.939Z,18.07
2019-03-01T05:09:17.722Z,16.47
2019-03-01T05:11:52.589Z,15.73
2019-03-01T05:14:29.360Z,16.77
2019-03-01T05:17:05.428Z,18.23
2019-03-01T05:19:42.511Z,17.23
2019-03-01T05:22:16.756Z,17.10
2019-03-01T05:24:48.237Z,17.13
2019-03-01T05:27:32.539Z,16.87
2019-03-01T05:30:22.582Z,16.70
2019-03-01T05:32:54.642Z,18.10
2019-03-01T05:35:27.665Z,17.40
2019-03-01T05:38:01.437Z,16.63
2019-03-01T05:40:37.270Z,17.97
2019-03-01T05:43:11.863Z,15.13
2019-03-01T05:45:49.872Z,17.03
2019-03-01T05:48:22.964Z,15.87
2019-03-01T05:50:56.581Z,16.23
2019-03-01T05:53:36.044Z,17.65
2019-03-01T05:56:06.987Z,17.13
2019-03-01T05:58:49.504Z,16.37
2019-03-01T06:01:44.092Z,16.33
2019-03-01T06:04:38.185Z,15.40
2019-03-01T06:07:19.387Z,14.40
2019-03-01T06:10:44.427Z,15.77
2019-03-01T06:13:40.947Z,14.47
2019-03-01T06:16:42.107Z,16.30
2019-03-01T06:19:58.139Z,15.47
2019-03-01T06:23:01.171Z,15.20
2019-03-01T06:26:22.441Z,15.60
2019-03-01T06:29:41.204Z,13.33
2019-03-01T06:33:00.484Z,13.90
2019-03-01T06:36:09.581Z,13.63
2019-03-01T06:39:33.508Z,12.70
2019-03-01T06:43:40.063Z,12.97
2019-03-01T06:46:49.432Z,14.00
2019-03-01T06:49:44.879Z,11.73
2019-03-01T06:52:21.916Z,11.43
2019-03-01T06:55:28.658Z,11.10
2019-03-01T06:58:08.892Z,11.47
2019-03-01T07:01:17.565Z,10.30
2019-03-01T07:04:04.802Z,10.77
2019-03-01T07:06:37.684Z,9.23
2019-03-01T07:09:27.560Z,10.10
2019-03-01T07:12:10.597Z,9.20
2019-03-01T07:14:54.719Z,9.60
2019-03-01T07:17:46.471Z,10.00
2019-03-01T07:20:39.329Z,8.90
2019-03-01T07:23:11.824Z,7.90
2019-03-01T07:26:01.939Z,7.90
2019-03-01T07:28:38.388Z,7.50
2019-03-01T07:31:12.155Z,8.53
2019-03-01T07:33:51.546Z,6.80
2019-03-01T07:36:24.845Z,7.73
2019-03-01T07:39:03.104Z,8.40
2019-03-01T07:41:35.129Z,8.20
2019-03-01T07:44:10.036Z,8.50
2019-03-01T07:46:41.371Z,8.30
2019-03-01T07:49:14.546Z,7.50
2019-03-01T07:51:45.462Z,9.03
2019-03-01T07:54:22.421Z,10.40
2019-03-01T07:56:55.917Z,10.00
2019-03-01T07:59:40.865Z,9.50
2019-03-01T08:02:29.711Z,9.13
2019-03-01T08:05:18.955Z,8.43
2019-03-01T08:08:08.028Z,8.97
2019-03-01T08:10:56.391Z,8.90
2019-03-01T08:13:26.943Z,7.83
2019-03-01T08:16:01.346Z,7.67
2019-03-01T08:18:40.117Z,7.33
2019-03-01T08:21:14.904Z,7.90
2019-03-01T08:23:50.434Z,7.80
2019-03-01T08:26:22.646Z,7.90
2019-03-01T08:28:58.639Z,8.10
2019-03-01T08:31:35.776Z,8.53
2019-03-01T08:34:09.053Z,7.70
2019-03-01T08:36:43.699Z,8.03
2019-03-01T08:39:15.423Z,7.57
2019-03-01T08:41:47.388Z,8.10
2019-03-01T08:44:22.921Z,9.20
2019-03-01T08:47:11.482Z,9.43
2019-03-01T08:50:00.429Z,8.90
2019-03-01T08:52:37.277Z,8.83
2019-03-01T08:55:25.384Z,9.00
2019-03-01T08:58:06.111Z,7.50
2019-03-01T09:00:36.907Z,6.90
2019-03-01T09:03:33.079Z,5.97
2019-03-01T09:06:15.546Z,4.83
2019-03-01T09:08:53.704Z,4.43
2019-03-01T09:11:30.609Z,4.03
2019-03-01T09:14:05.195Z,3.63
2019-03-01T09:16:45.952Z,3.87
2019-03-01T09:19:22.314Z,3.57
2019-03-01T09:21:56.632Z,3.10
2019-03-01T09:24:31.070Z,3.13
2019-03-01T09:27:05.561Z,3.47
2019-03-01T09:29:42.098Z,3.37
2019-03-01T09:32:38.232Z,2.90
2019-03-01T09:35:43.006Z,2.57
2019-03-01T09:38:17.757Z,2.30
2019-03-01T09:40:51.762Z,2.57
2019-03-01T09:43:27.805Z,2.93
2019-03-01T09:46:00.165Z,2.43
2019-03-01T09:48:31.102Z,2.63
2019-03-01T09:51:07.338Z,2.57
2019-03-01T09:53:39.947Z,2.40
2019-03-01T09:56:13.865Z,2.00
2019-03-01T09:58:45.065Z,2.40
2019-03-01T10:01:19.300Z,2.37
2019-03-01T10:03:52.746Z,2.40
2019-03-01T10:06:37.651Z,2.30
2019-03-01T10:09:22.088Z,2.60
2019-03-01T10:12:13.337Z,2.37
2019-03-01T10:14:52.967Z,2.43
2019-03-01T10:17:43.011Z,1.97
2019-03-01T10:20:49.174Z,2.20
2019-03-01T10:23:30.300Z,2.27
2019-03-01T10:26:19.875Z,2.20
2019-03-01T10:28:54.334Z,2.40
2019-03-01T10:31:32.318Z,2.37
2019-03-01T10:34:12.540Z,2.23
2019-03-01T10:36:49.752Z,2.30
2019-03-01T10:39:21.606Z,2.20
2019-03-01T10:41:56.029Z,2.27
2019-03-01T10:44:36.943Z,2.43
2019-03-01T10:47:18.648Z,2.37
2019-03-01T10:49:54.851Z,2.10
2019-03-01T10:52:45.828Z,2.53
2019-03-01T10:55:23.750Z,2.20
2019-03-01T10:58:05.673Z,2.50
2019-03-01T11:00:43.889Z,1.80
2019-03-01T11:06:43.976Z,2.93
2019-03-01T11:09:56.696Z,2.30
2019-03-01T11:12:49.063Z,3.33
2019-03-01T11:15:41.995Z,3.10
2019-03-01T11:18:30.753Z,3.60
2019-03-01T11:21:26.265Z,4.27
2019-03-01T11:24:04.102Z,3.27
2019-03-01T11:27:19.849Z,4.03
2019-03-01T11:37:52.903Z,3.20
2019-03-01T11:40:29.463Z,2.63
2019-03-01T11:43:06.558Z,2.70
2019-03-01T11:45:56.262Z,3.07
2019-03-01T11:48:33.022Z,3.50
2019-03-01T11:51:08.130Z,2.93
2019-03-01T11:53:39.686Z,2.60
2019-03-01T11:56:13.359Z,2.50
2019-03-01T11:58:51.928Z,2.57
2019-03-01T12:01:23.469Z,2.40
2019-03-01T12:04:03.805Z,2.60
2019-03-01T12:06:41.006Z,2.80
2019-03-01T12:09:20.371Z,1.90
2019-03-01T12:12:05.787Z,2.20
2019-03-01T12:15:20.821Z,2.93
2019-03-01T12:18:10.063Z,2.73
2019-03-01T12:21:11.988Z,2.40
2019-03-01T12:23:46.560Z,2.73
2019-03-01T12:26:31.283Z,3.47
2019-03-01T12:29:02.680Z,3.33
2019-03-01T12:31:33.798Z,3.30
2019-03-01T12:34:05.789Z,3.00
2019-03-01T12:36:39.149Z,3.07
2019-03-01T12:39:15.441Z,3.77
2019-03-01T12:41:48.792Z,3.13
2019-03-01T12:44:21.273Z,3.67
2019-03-01T12:46:58.860Z,3.30
2019-03-01T12:49:31.663Z,3.47
2019-03-01T12:52:06.418Z,3.77
2019-03-01T12:54:39.869Z,4.17
2019-03-01T12:57:17.821Z,2.90
2019-03-01T12:59:50.353Z,3.30
2019-03-01T13:02:25.443Z,3.23
2019-03-01T13:04:58.344Z,3.07
2019-03-01T13:07:29.686Z,3.33
2019-03-01T13:10:10.434Z,3.03
2019-03-01T13:12:42.105Z,3.50
2019-03-01T13:15:16.194Z,2.83
2019-03-01T13:18:05.296Z,2.90
2019-03-01T13:20:37.039Z,2.73
2019-03-01T13:23:10.339Z,2.43
2019-03-01T13:25:44.289Z,2.80
2019-03-01T13:28:18.768Z,2.00
2019-03-01T13:30:57.581Z,2.00
2019-03-01T13:33:34.713Z,2.50
2019-03-01T13:36:10.531Z,2.10
2019-03-01T13:38:43.168Z,2.13
2019-03-01T13:41:15.331Z,2.27
2019-03-01T13:43:52.726Z,1.90
2019-03-01T13:46:26.401Z,2.37
2019-03-01T13:49:03.011Z,1.93
2019-03-01T13:51:34.893Z,2.63
2019-03-01T13:54:08.899Z,2.33
2019-03-01T13:56:39.046Z,2.17
2019-03-01T13:59:11.487Z,2.13
2019-03-01T14:01:47.692Z,2.30
2019-03-01T14:04:20.062Z,1.70
2019-03-01T14:06:52.515Z,1.97
2019-03-01T14:09:41.909Z,1.90
2019-03-01T14:12:15.020Z,1.70
2019-03-01T14:14:50.597Z,1.37
2019-03-01T14:17:25.734Z,1.73
2019-03-01T14:19:59.797Z,1.30
2019-03-01T14:22:39.041Z,1.30
2019-03-01T14:25:26.079Z,1.63
2019-03-01T14:28:09.122Z,1.57
2019-03-01T14:30:43.262Z,1.20
2019-03-01T14:33:15.889Z,1.33
2019-03-01T14:36:04.904Z,1.20
2019-03-01T14:38:35.847Z,1.40
2019-03-01T14:41:10.905Z,1.20
2019-03-01T14:43:59.157Z,1.40
2019-03-01T14:46:32.322Z,1.10
2019-03-01T14:49:04.626Z,1.50
2019-03-01T14:51:36.260Z,1.10
2019-03-01T14:54:09.926Z,1.53
2019-03-01T14:57:06.916Z,1.30
2019-03-01T15:00:18.121Z,0.97
2019-03-01T15:03:37.261Z,1.60
2019-03-01T15:06:10.854Z,1.80
2019-03-01T15:08:45.132Z,2.00
2019-03-01T15:11:22.665Z,1.83
2019-03-01T15:14:00.626Z,1.73
2019-03-01T15:16:39.383Z,1.60
2019-03-01T15:19:10.314Z,1.37
2019-03-01T15:21:54.333Z,1.47
2019-03-01T15:24:27.777Z,1.87
2019-03-01T15:27:00.116Z,1.50
2019-03-01T15:29:33.308Z,1.17
2019-03-01T15:32:04.751Z,1.30
2019-03-01T15:34:37.059Z,1.30
2019-03-01T15:37:11.225Z,1.40
2019-03-01T15:39:43.012Z,1.40
2019-03-01T15:42:20.346Z,1.60
2019-03-01T15:48:20.743Z,2.50
2019-03-01T15:50:53.623Z,2.00
2019-03-01T15:53:29.501Z,1.97
2019-03-01T15:56:02.201Z,2.70
2019-03-01T15:58:37.143Z,2.17
2019-03-01T16:01:12.053Z,2.03
2019-03-01T16:04:01.149Z,2.27
2019-03-01T16:06:37.379Z,2.80
2019-03-01T16:09:16.004Z,2.27
2019-03-01T16:12:09.112Z,2.80
2019-03-01T16:15:00.574Z,2.57
2019-03-01T16:17:30.631Z,2.23
2019-03-01T16:20:03.602Z,3.43
2019-03-01T16:22:38.741Z,3.03
2019-03-01T16:25:12.912Z,2.50
2019-03-01T16:28:11.837Z,2.27
2019-03-01T16:30:58.806Z,2.50
2019-03-01T16:33:31.186Z,2.03
2019-03-01T16:36:15.450Z,2.13
2019-03-01T16:38:49.044Z,2.27
2019-03-01T16:41:20.534Z,2.70
2019-03-01T16:44:35.566Z,2.07
2019-03-01T16:47:16.819Z,2.43
2019-03-01T16:49:48.734Z,2.50
2019-03-01T16:52:19.827Z,2.93
2019-03-01T16:55:12.091Z,3.90
2019-03-01T17:03:02.390Z,2.50
2019-03-01T17:06:17.798Z,3.10
2019-03-01T17:09:17.148Z,3.20
2019-03-01T17:13:27.030Z,3.07
2019-03-01T17:17:06.163Z,5.03
2019-03-01T17:23:50.585Z,2.87
2019-03-01T17:27:10.169Z,2.73
2019-03-01T17:30:02.776Z,3.20
2019-03-01T17:33:00.046Z,2.90
2019-03-01T17:38:31.796Z,2.73
2019-03-01T17:41:31.466Z,2.33
2019-03-01T17:44:53.125Z,2.63
2019-03-01T17:48:00.929Z,2.20
2019-03-01T17:50:41.677Z,2.70
2019-03-01T17:53:31.721Z,2.40
2019-03-01T17:56:26.273Z,2.93
2019-03-01T18:02:21.258Z,3.10
2019-03-01T18:05:11.151Z,2.90
2019-03-01T18:07:43.705Z,2.80
2019-03-01T18:10:55.606Z,2.40
2019-03-01T18:13:40.930Z,1.87
2019-03-01T18:16:17.042Z,1.73
2019-03-01T18:20:01.494Z,2.10
2019-03-01T18:22:36.310Z,2.80
2019-03-01T18:25:28.660Z,3.40
2019-03-01T18:29:16.011Z,2.60
2019-03-01T18:31:53.408Z,2.70
2019-03-01T18:34:35.696Z,3.40
2019-03-01T18:37:19.150Z,3.70
2019-03-01T18:39:42.270Z,4.70
2019-03-01T18:42:15.716Z,4.70
2019-03-01T18:44:49.974Z,5.93
2019-03-01T18:47:23.358Z,5.37
2019-03-01T18:49:56.212Z,5.93
2019-03-01T18:52:54.209Z,7.27
2019-03-01T18:55:39.457Z,6.43
2019-03-01T18:58:17.793Z,6.93
2019-03-01T19:01:25.169Z,6.90
2019-03-01T19:08:52.517Z,7.80
2019-03-01T19:16:07.374Z,7.73
2019-03-01T19:18:44.286Z,7.27
2019-03-01T19:21:22.915Z,6.73
2019-03-01T19:27:56.491Z,6.00
2019-03-01T19:34:17.012Z,6.17
2019-03-01T19:55:33.176Z,4.33
2019-03-01T19:58:08.743Z,6.17
2019-03-01T20:01:09.886Z,5.33
2019-03-01T20:03:45.460Z,5.10
2019-03-01T20:06:17.109Z,6.40
2019-03-01T20:08:52.464Z,5.60
2019-03-01T20:11:29.984Z,6.23
2019-03-01T20:14:19.629Z,5.73
2019-03-01T20:17:09.348Z,5.93
2019-03-01T20:19:53.648Z,5.67
2019-03-01T20:22:29.332Z,6.20
2019-03-01T20:25:20.189Z,6.40
2019-03-01T20:27:55.174Z,5.53
2019-03-01T20:30:30.635Z,4.93
2019-03-01T20:33:03.664Z,5.67
2019-03-01T20:35:36.309Z,4.83
2019-03-01T20:38:08.879Z,5.80
2019-03-01T20:40:41.925Z,5.90
2019-03-01T20:43:19.059Z,5.83
2019-03-01T20:45:53.248Z,5.20
2019-03-01T20:48:42.497Z,5.57
2019-03-01T20:51:15.046Z,5.43
2019-03-01T20:53:49.307Z,5.30
2019-03-01T20:56:23.303Z,4.87
2019-03-01T21:00:18.405Z,5.13
2019-03-01T21:03:12.815Z,4.80
2019-03-01T21:06:17.290Z,5.73
2019-03-01T21:09:44.779Z,6.37
2019-03-01T21:13:37.327Z,5.47
2019-03-01T21:16:25.267Z,5.33
2019-03-01T21:19:11.558Z,6.37
2019-03-01T21:23:07.617Z,5.93
2019-03-01T21:25:43.143Z,5.50
2019-03-01T21:28:33.761Z,6.07
2019-03-01T21:31:11.217Z,7.07
2019-03-01T21:33:43.239Z,7.03
2019-03-01T21:36:17.942Z,7.30
2019-03-01T21:38:50.228Z,8.20
2019-03-01T21:41:23.770Z,7.60
2019-03-01T21:44:03.220Z,8.40
2019-03-01T21:46:37.042Z,8.60
2019-03-01T21:49:11.873Z,8.73
2019-03-01T21:51:45.145Z,8.70
2019-03-01T21:54:19.182Z,9.93
2019-03-01T21:56:55.723Z,10.77
2019-03-01T21:59:25.136Z,10.10
2019-03-01T22:01:58.525Z,9.93
2019-03-01T22:04:30.694Z,11.10
2019-03-01T22:07:02.901Z,11.37
2019-03-01T22:09:38.187Z,10.80
2019-03-01T22:12:31.012Z,11.80
2019-03-01T22:15:11.751Z,13.70
2019-03-01T22:17:45.338Z,12.60
2019-03-01T22:20:25.100Z,13.30
2019-03-01T22:22:58.913Z,13.17
2019-03-01T22:25:34.491Z,13.80
2019-03-01T22:28:07.352Z,13.90
2019-03-01T22:30:42.379Z,14.63
2019-03-01T22:33:17.485Z,14.63
2019-03-01T22:36:04.909Z,13.43
2019-03-01T22:38:37.671Z,12.87
2019-03-01T22:41:10.529Z,14.07
2019-03-01T22:43:41.972Z,13.40
2019-03-01T22:46:15.500Z,12.93
2019-03-01T22:49:04.744Z,12.87
2019-03-01T22:51:37.914Z,13.13
2019-03-01T22:54:10.640Z,13.40
2019-03-01T22:56:41.222Z,13.20
2019-03-01T22:59:13.507Z,13.20
2019-03-01T23:01:48.298Z,13.30
2019-03-01T23:04:21.433Z,14.00
2019-03-01T23:06:54.192Z,13.00
2019-03-01T23:09:28.476Z,12.20
2019-03-01T23:11:59.657Z,14.23
2019-03-01T23:14:31.888Z,13.80
2019-03-01T23:17:04.426Z,14.03
2019-03-01T23:19:39.173Z,13.50
2019-03-01T23:22:12.134Z,12.60
2019-03-01T23:24:49.473Z,13.20
2019-03-01T23:27:20.412Z,13.53
2019-03-01T23:29:54.253Z,13.53
2019-03-01T23:32:25.686Z,14.50
2019-03-01T23:35:00.340Z,14.00
2019-03-01T23:37:35.597Z,14.93
2019-03-01T23:40:09.861Z,15.77
2019-03-01T23:42:43.568Z,15.37
2019-03-01T23:45:19.833Z,15.67
2019-03-01T23:47:52.549Z,14.80
2019-03-01T23:50:38.840Z,16.00
2019-03-01T23:53:11.083Z,13.77
2019-03-01T23:55:47.523Z,11.50
2019-03-01T23:58:20.495Z,11.67
